createdAt,value
2017-09-21T00:00:59.672Z,10.48
2017-09-21T00:01:59.670Z,10.37
2017-09-21T00:02:59.669Z,10.33
2017-09-21T00:03:59.668Z,10.34
2017-09-21T00:04:59.664Z,10.37
2017-09-21T00:05:59.663Z,10.35
2017-09-21T00:06:59.663Z,10.38
2017-09-21T00:07:59.661Z,10.38
2017-09-21T00:08:59.657Z,10.31
2017-09-21T00:09:59.655Z,10.25
2017-09-21T00:10:59.656Z,10.35
2017-09-21T00:11:59.655Z,10.23
2017-09-21T00:12:59.651Z,10.28
2017-09-21T00:13:59.650Z,10.30
2017-09-21T00:14:59.649Z,10.30
2017-09-21T00:15:59.647Z,10.30
2017-09-21T00:16:59.644Z,10.28
2017-09-21T00:17:59.642Z,10.17
2017-09-21T00:18:59.641Z,10.22
2017-09-21T00:19:59.640Z,10.25
2017-09-21T00:20:59.639Z,10.25
2017-09-21T00:21:59.636Z,10.20
2017-09-21T00:22:59.634Z,10.17
2017-09-21T00:23:59.634Z,10.16
2017-09-21T00:24:59.631Z,10.20
2017-09-21T00:25:59.630Z,10.16
2017-09-21T00:26:59.627Z,10.12
2017-09-21T00:27:59.625Z,10.10
2017-09-21T00:28:59.624Z,10.20
2017-09-21T00:29:59.623Z,10.13
2017-09-21T00:30:59.620Z,10.10
2017-09-21T00:31:59.620Z,10.05
2017-09-21T00:32:59.618Z,10.13
2017-09-21T00:33:59.614Z,10.10
2017-09-21T00:34:59.613Z,10.13
2017-09-21T00:35:59.639Z,10.10
2017-09-21T00:36:59.609Z,10.04
2017-09-21T00:37:59.608Z,10.12
2017-09-21T00:38:59.606Z,10.12
2017-09-21T00:39:59.604Z,10.22
2017-09-21T00:40:59.602Z,10.17
2017-09-21T00:41:59.600Z,10.26
2017-09-21T00:42:59.600Z,10.31
2017-09-21T00:43:59.626Z,10.25
2017-09-21T00:44:59.594Z,10.31
2017-09-21T00:45:59.594Z,10.22
2017-09-21T00:46:59.591Z,10.28
2017-09-21T00:47:59.591Z,10.22
2017-09-21T00:48:59.588Z,10.23
2017-09-21T00:49:59.587Z,10.22
2017-09-21T00:50:59.583Z,10.26
2017-09-21T00:51:59.582Z,10.22
2017-09-21T00:52:59.581Z,10.07
2017-09-21T00:53:59.577Z,10.13
2017-09-21T00:54:59.577Z,10.17
2017-09-21T00:55:59.576Z,10.16
2017-09-21T00:56:59.573Z,10.09
2017-09-21T00:57:59.572Z,10.15
2017-09-21T00:58:59.570Z,10.10
2017-09-21T00:59:59.569Z,10.15
2017-09-21T01:00:59.565Z,10.13
2017-09-21T01:01:59.565Z,10.10
2017-09-21T01:02:59.563Z,10.16
2017-09-21T01:03:59.561Z,10.10
2017-09-21T01:04:59.558Z,10.17
2017-09-21T01:05:59.556Z,10.10
2017-09-21T01:06:59.556Z,10.07
2017-09-21T01:07:59.552Z,10.15
2017-09-21T01:08:59.550Z,10.09
2017-09-21T01:09:59.547Z,10.05
2017-09-21T01:10:59.548Z,10.13
2017-09-21T01:11:59.545Z,10.19
2017-09-21T01:12:59.543Z,10.13
2017-09-21T01:13:59.547Z,10.15
2017-09-21T01:14:59.542Z,10.15
2017-09-21T01:15:59.539Z,10.12
2017-09-21T01:16:59.537Z,10.05
2017-09-21T01:17:59.534Z,10.15
2017-09-21T01:18:59.532Z,10.13
2017-09-21T01:19:59.532Z,10.10
2017-09-21T01:20:59.529Z,10.16
2017-09-21T01:21:59.526Z,10.10
2017-09-21T01:22:59.524Z,10.09
2017-09-21T01:23:59.522Z,10.09
2017-09-21T01:24:59.520Z,10.15
2017-09-21T01:25:59.518Z,10.05
2017-09-21T01:26:59.516Z,10.16
2017-09-21T01:27:59.516Z,10.10
2017-09-21T01:28:59.512Z,10.10
2017-09-21T01:29:59.510Z,10.02
2017-09-21T01:30:59.508Z,10.02
2017-09-21T01:31:59.507Z,10.12
2017-09-21T01:32:59.505Z,10.02
2017-09-21T01:33:59.502Z,10.01
2017-09-21T01:34:59.501Z,10.04
2017-09-21T01:35:59.499Z,10.09
2017-09-21T01:36:59.496Z,10.01
2017-09-21T01:37:59.493Z,10.01
2017-09-21T01:38:59.493Z,9.97
2017-09-21T01:39:59.492Z,9.94
2017-09-21T01:40:59.489Z,9.92
2017-09-21T01:41:59.485Z,9.92
2017-09-21T01:42:59.485Z,9.97
2017-09-21T01:43:59.482Z,9.97
2017-09-21T01:44:59.479Z,10.01
2017-09-21T01:45:59.479Z,9.99
2017-09-21T01:46:59.476Z,10.07
2017-09-21T01:47:59.475Z,10.04
2017-09-21T01:48:59.471Z,10.07
2017-09-21T01:49:59.470Z,10.04
2017-09-21T01:50:59.468Z,10.02
2017-09-21T01:51:59.466Z,10.02
2017-09-21T01:52:59.466Z,10.13
2017-09-21T01:53:59.462Z,10.09
2017-09-21T01:54:59.458Z,10.09
2017-09-21T01:55:59.457Z,10.10
2017-09-21T01:56:59.455Z,10.07
2017-09-21T01:57:59.455Z,10.23
2017-09-21T01:58:59.453Z,10.16
2017-09-21T01:59:59.452Z,10.28
2017-09-21T02:00:59.448Z,10.19
2017-09-21T02:01:59.447Z,10.17
2017-09-21T02:02:59.445Z,10.19
2017-09-21T02:03:59.444Z,10.17
2017-09-21T02:04:59.440Z,10.30
2017-09-21T02:05:59.438Z,10.30
2017-09-21T02:06:59.438Z,10.17
2017-09-21T02:07:59.435Z,10.25
2017-09-21T02:08:59.432Z,10.20
2017-09-21T02:09:59.432Z,10.22
2017-09-21T02:10:59.430Z,10.23
2017-09-21T02:11:59.428Z,10.30
2017-09-21T02:12:59.425Z,10.26
2017-09-21T02:13:59.425Z,10.23
2017-09-21T02:14:59.422Z,10.23
2017-09-21T02:15:59.419Z,10.30
2017-09-21T02:16:59.417Z,10.26
2017-09-21T02:17:59.418Z,10.15
2017-09-21T02:18:59.415Z,10.26
2017-09-21T02:19:59.412Z,10.10
2017-09-21T02:20:59.410Z,10.12
2017-09-21T02:21:59.409Z,10.09
2017-09-21T02:22:59.408Z,10.15
2017-09-21T02:23:59.415Z,10.13
2017-09-21T02:24:59.404Z,10.19
2017-09-21T02:25:59.402Z,10.05
2017-09-21T02:26:59.398Z,10.12
2017-09-21T02:27:59.398Z,10.07
2017-09-21T02:28:59.395Z,10.13
2017-09-21T02:29:59.393Z,10.09
2017-09-21T02:30:59.392Z,10.01
2017-09-21T02:31:59.390Z,10.01
2017-09-21T02:32:59.388Z,10.01
2017-09-21T02:33:59.387Z,10.02
2017-09-21T02:34:59.386Z,10.01
2017-09-21T02:35:59.383Z,9.97
2017-09-21T02:36:59.380Z,10.01
2017-09-21T02:37:59.378Z,10.05
2017-09-21T02:38:59.378Z,10.07
2017-09-21T02:39:59.374Z,9.94
2017-09-21T02:40:59.372Z,9.87
2017-09-21T02:41:59.371Z,9.92
2017-09-21T02:42:59.369Z,9.94
2017-09-21T02:43:59.370Z,9.89
2017-09-21T02:44:59.363Z,9.91
2017-09-21T02:45:59.362Z,9.95
2017-09-21T02:46:59.361Z,10.01
2017-09-21T02:47:59.359Z,9.91
2017-09-21T02:48:59.357Z,10.01
2017-09-21T02:49:59.357Z,10.01
2017-09-21T02:50:59.353Z,9.89
2017-09-21T02:51:59.350Z,9.86
2017-09-21T02:52:59.351Z,9.97
2017-09-21T02:53:59.363Z,9.97
2017-09-21T02:54:59.346Z,10.09
2017-09-21T02:55:59.345Z,10.07
2017-09-21T02:56:59.342Z,9.99
2017-09-21T02:57:59.338Z,10.05
2017-09-21T02:58:59.336Z,10.05
2017-09-21T02:59:59.335Z,10.01
2017-09-21T03:00:59.333Z,10.01
2017-09-21T03:01:59.332Z,10.07
2017-09-21T03:02:59.329Z,10.01
2017-09-21T03:03:59.328Z,10.01
2017-09-21T03:04:59.326Z,10.07
2017-09-21T03:05:59.327Z,9.95
2017-09-21T03:06:59.322Z,10.02
2017-09-21T03:07:59.320Z,10.04
2017-09-21T03:08:59.317Z,9.99
2017-09-21T03:09:59.316Z,10.07
2017-09-21T03:10:59.315Z,9.95
2017-09-21T03:11:59.313Z,10.07
2017-09-21T03:12:59.310Z,10.09
2017-09-21T03:13:59.312Z,9.98
2017-09-21T03:14:59.306Z,9.95
2017-09-21T03:15:59.305Z,10.07
2017-09-21T03:16:59.300Z,10.02
2017-09-21T03:17:59.300Z,10.02
2017-09-21T03:18:59.296Z,10.01
2017-09-21T03:19:59.296Z,9.84
2017-09-21T03:20:59.294Z,9.92
2017-09-21T03:21:59.291Z,9.92
2017-09-21T03:22:59.290Z,9.89
2017-09-21T03:23:59.287Z,9.94
2017-09-21T03:24:59.284Z,9.91
2017-09-21T03:25:59.283Z,9.89
2017-09-21T03:26:59.281Z,9.87
2017-09-21T03:27:59.278Z,9.84
2017-09-21T03:28:59.275Z,9.89
2017-09-21T03:29:59.274Z,9.84
2017-09-21T03:30:59.274Z,9.87
2017-09-21T03:31:59.271Z,9.87
2017-09-21T03:32:59.269Z,9.79
2017-09-21T03:33:59.266Z,9.76
2017-09-21T03:34:59.264Z,9.72
2017-09-21T03:35:59.262Z,9.72
2017-09-21T03:36:59.261Z,9.65
2017-09-21T03:37:59.257Z,9.68
2017-09-21T03:38:59.256Z,9.69
2017-09-21T03:39:59.254Z,9.64
2017-09-21T03:40:59.252Z,9.62
2017-09-21T03:41:59.249Z,9.59
2017-09-21T03:42:59.246Z,9.62
2017-09-21T03:43:59.245Z,9.65
2017-09-21T03:44:59.244Z,9.61
2017-09-21T03:45:59.240Z,9.56
2017-09-21T03:46:59.236Z,9.43
2017-09-21T03:47:59.243Z,9.43
2017-09-21T03:48:59.235Z,9.41
2017-09-21T03:49:59.232Z,9.46
2017-09-21T03:50:59.230Z,9.32
2017-09-21T03:51:59.227Z,9.37
2017-09-21T03:52:59.225Z,9.40
2017-09-21T03:53:59.223Z,9.36
2017-09-21T03:54:59.221Z,9.29
2017-09-21T03:55:59.219Z,9.32
2017-09-21T03:56:59.215Z,9.26
2017-09-21T03:57:59.214Z,9.29
2017-09-21T03:58:59.210Z,9.25
2017-09-21T03:59:59.210Z,9.22
2017-09-21T04:00:59.206Z,9.14
2017-09-21T04:01:59.203Z,9.22
2017-09-21T04:02:59.201Z,9.18
2017-09-21T04:03:59.200Z,9.16
2017-09-21T04:04:59.197Z,9.14
2017-09-21T04:05:59.193Z,9.02
2017-09-21T04:06:59.190Z,9.08
2017-09-21T04:07:59.191Z,9.04
2017-09-21T04:08:59.186Z,9.03
2017-09-21T04:09:59.184Z,8.99
2017-09-21T04:10:59.182Z,9.00
2017-09-21T04:11:59.180Z,9.00
2017-09-21T04:12:59.176Z,9.02
2017-09-21T04:13:59.173Z,9.03
2017-09-21T04:14:59.170Z,9.00
2017-09-21T04:15:59.169Z,9.00
2017-09-21T04:16:59.165Z,9.00
2017-09-21T04:17:59.164Z,9.06
2017-09-21T04:18:59.162Z,8.95
2017-09-21T04:19:59.158Z,9.00
2017-09-21T04:20:59.155Z,9.00
2017-09-21T04:21:59.153Z,8.88
2017-09-21T04:22:59.150Z,8.94
2017-09-21T04:23:59.148Z,8.84
2017-09-21T04:24:59.144Z,8.95
2017-09-21T04:25:59.141Z,9.03
2017-09-21T04:26:59.138Z,8.94
2017-09-21T04:27:59.136Z,8.99
2017-09-21T04:28:59.134Z,8.89
2017-09-21T04:29:59.130Z,8.92
2017-09-21T04:30:59.128Z,8.85
2017-09-21T04:31:59.126Z,8.85
2017-09-21T04:32:59.123Z,8.76
2017-09-21T04:33:59.119Z,8.84
2017-09-21T04:34:59.117Z,8.81
2017-09-21T04:35:59.114Z,8.81
2017-09-21T04:36:59.110Z,8.69
2017-09-21T04:37:59.109Z,8.78
2017-09-21T04:38:59.105Z,8.73
2017-09-21T04:39:59.103Z,8.67
2017-09-21T04:40:59.098Z,8.67
2017-09-21T04:41:59.099Z,8.70
2017-09-21T04:42:59.097Z,8.69
2017-09-21T04:43:59.089Z,8.63
2017-09-21T04:44:59.091Z,8.60
2017-09-21T04:45:59.083Z,8.58
2017-09-21T04:46:59.082Z,8.61
2017-09-21T04:47:59.080Z,8.60
2017-09-21T04:48:59.074Z,8.58
2017-09-21T04:49:59.073Z,8.53
2017-09-21T04:50:59.070Z,8.49
2017-09-21T04:51:59.067Z,8.45
2017-09-21T04:52:59.063Z,8.42
2017-09-21T04:53:59.061Z,8.38
2017-09-21T04:54:59.056Z,8.42
2017-09-21T04:55:59.055Z,8.46
2017-09-21T04:56:59.050Z,8.49
2017-09-21T04:57:59.047Z,8.44
2017-09-21T04:58:59.043Z,8.38
2017-09-21T04:59:59.042Z,8.42
2017-09-21T05:00:59.040Z,8.38
2017-09-21T05:01:59.035Z,8.31
2017-09-21T05:02:59.033Z,8.31
2017-09-21T05:03:59.029Z,8.31
2017-09-21T05:04:59.026Z,8.34
2017-09-21T05:05:59.024Z,8.36
2017-09-21T05:06:59.020Z,8.33
2017-09-21T05:07:59.018Z,8.27
2017-09-21T05:08:59.012Z,8.18
2017-09-21T05:09:59.011Z,8.16
2017-09-21T05:10:59.007Z,8.24
2017-09-21T05:11:59.007Z,8.23
2017-09-21T05:12:59.000Z,8.20
2017-09-21T05:13:58.998Z,8.24
2017-09-21T05:14:58.995Z,8.16
2017-09-21T05:15:58.992Z,8.19
2017-09-21T05:16:58.986Z,8.18
2017-09-21T05:17:58.984Z,8.15
2017-09-21T05:18:58.980Z,8.15
2017-09-21T05:19:58.978Z,8.16
2017-09-21T05:20:58.975Z,8.15
2017-09-21T05:21:58.972Z,8.15
2017-09-21T05:22:58.967Z,8.12
2017-09-21T05:23:58.966Z,8.12
2017-09-21T05:24:58.963Z,8.03
2017-09-21T05:25:58.958Z,8.08
2017-09-21T05:26:58.954Z,8.05
2017-09-21T05:27:58.951Z,8.05
2017-09-21T05:28:58.949Z,8.03
2017-09-21T05:29:58.946Z,8.01
2017-09-21T05:30:58.942Z,8.06
2017-09-21T05:31:58.939Z,8.01
2017-09-21T05:32:58.934Z,8.01
2017-09-21T05:33:58.932Z,8.16
2017-09-21T05:34:58.929Z,8.15
2017-09-21T05:35:58.925Z,8.16
2017-09-21T05:36:58.921Z,8.19
2017-09-21T05:37:58.918Z,8.16
2017-09-21T05:38:58.915Z,8.24
2017-09-21T05:39:58.912Z,8.19
2017-09-21T05:40:58.908Z,8.15
2017-09-21T05:41:58.903Z,8.20
2017-09-21T05:42:58.900Z,8.10
2017-09-21T05:43:58.897Z,8.20
2017-09-21T05:44:58.893Z,8.18
2017-09-21T05:45:58.890Z,8.18
2017-09-21T05:46:58.887Z,8.19
2017-09-21T05:47:58.884Z,8.20
2017-09-21T05:48:58.880Z,8.24
2017-09-21T05:49:58.878Z,8.23
2017-09-21T05:50:58.875Z,8.24
2017-09-21T05:51:58.870Z,8.20
2017-09-21T05:52:58.866Z,8.24
2017-09-21T05:53:58.864Z,8.27
2017-09-21T05:54:58.861Z,8.24
2017-09-21T05:55:58.856Z,8.28
2017-09-21T05:56:58.852Z,8.18
2017-09-21T05:57:58.848Z,8.31
2017-09-21T05:58:58.846Z,8.34
2017-09-21T05:59:58.843Z,8.30
2017-09-21T06:00:58.839Z,8.30
2017-09-21T06:01:58.835Z,8.31
2017-09-21T06:02:58.833Z,8.27
2017-09-21T06:03:58.828Z,8.34
2017-09-21T06:04:58.826Z,8.38
2017-09-21T06:05:58.822Z,8.46
2017-09-21T06:06:58.820Z,8.56
2017-09-21T06:07:58.816Z,8.49
2017-09-21T06:08:58.811Z,8.56
2017-09-21T06:09:58.809Z,8.53
2017-09-21T06:10:58.807Z,8.60
2017-09-21T06:11:58.803Z,8.63
2017-09-21T06:12:58.799Z,8.58
2017-09-21T06:13:58.795Z,8.61
2017-09-21T06:14:58.792Z,8.61
2017-09-21T06:15:58.790Z,8.61
2017-09-21T06:16:58.785Z,8.64
2017-09-21T06:17:58.786Z,8.64
2017-09-21T06:18:58.778Z,8.64
2017-09-21T06:19:58.777Z,8.73
2017-09-21T06:20:58.771Z,8.64
2017-09-21T06:21:58.769Z,8.73
2017-09-21T06:22:58.768Z,8.81
2017-09-21T06:23:58.763Z,8.79
2017-09-21T06:24:58.760Z,8.81
2017-09-21T06:25:58.757Z,8.85
2017-09-21T06:26:58.754Z,8.95
2017-09-21T06:27:58.751Z,8.92
2017-09-21T06:28:58.747Z,9.13
2017-09-21T06:29:58.746Z,9.08
2017-09-21T06:30:58.740Z,9.10
2017-09-21T06:31:58.738Z,9.13
2017-09-21T06:32:58.735Z,9.16
2017-09-21T06:33:58.731Z,9.19
2017-09-21T06:34:58.730Z,9.25
2017-09-21T06:35:58.725Z,9.23
2017-09-21T06:36:58.722Z,9.31
2017-09-21T06:37:58.719Z,9.31
2017-09-21T06:38:58.720Z,9.36
2017-09-21T06:39:58.713Z,9.44
2017-09-21T06:40:58.710Z,9.46
2017-09-21T06:41:58.706Z,9.44
2017-09-21T06:42:58.705Z,9.51
2017-09-21T06:43:58.702Z,9.61
2017-09-21T06:44:58.700Z,9.54
2017-09-21T06:45:58.695Z,9.55
2017-09-21T06:46:58.690Z,9.64
2017-09-21T06:47:58.688Z,9.61
2017-09-21T06:48:58.687Z,9.62
2017-09-21T06:49:58.685Z,9.62
2017-09-21T06:50:58.682Z,9.62
2017-09-21T06:51:58.680Z,9.66
2017-09-21T06:52:58.676Z,9.69
2017-09-21T06:53:58.672Z,9.74
2017-09-21T06:54:58.674Z,9.76
2017-09-21T06:55:58.667Z,9.83
2017-09-21T06:56:58.662Z,9.91
2017-09-21T06:57:58.661Z,9.89
2017-09-21T06:58:58.660Z,9.95
2017-09-21T06:59:58.657Z,10.07
2017-09-21T07:00:58.654Z,10.04
2017-09-21T07:01:58.651Z,10.10
2017-09-21T07:02:58.649Z,10.25
2017-09-21T07:03:58.646Z,10.31
2017-09-21T07:04:58.643Z,10.40
2017-09-21T07:05:58.642Z,10.57
2017-09-21T07:06:58.638Z,10.69
2017-09-21T07:07:58.638Z,10.68
2017-09-21T07:08:58.635Z,10.74
2017-09-21T07:09:58.633Z,10.78
2017-09-21T07:10:58.629Z,10.75
2017-09-21T07:11:58.626Z,10.86
2017-09-21T07:12:58.625Z,10.96
2017-09-21T07:13:58.620Z,10.99
2017-09-21T07:14:58.618Z,11.10
2017-09-21T07:15:58.617Z,11.08
2017-09-21T07:16:58.613Z,11.23
2017-09-21T07:17:58.612Z,11.35
2017-09-21T07:18:58.610Z,11.40
2017-09-21T07:19:58.611Z,11.41
2017-09-21T07:20:58.607Z,11.52
2017-09-21T07:21:58.605Z,11.54
2017-09-21T07:22:58.602Z,11.57
2017-09-21T07:23:58.601Z,11.65
2017-09-21T07:24:58.598Z,11.70
2017-09-21T07:25:58.595Z,11.69
2017-09-21T07:26:58.593Z,11.68
2017-09-21T07:27:58.594Z,11.80
2017-09-21T07:28:58.590Z,11.86
2017-09-21T07:29:58.588Z,11.81
2017-09-21T07:30:58.586Z,11.88
2017-09-21T07:31:58.586Z,11.81
2017-09-21T07:32:58.582Z,11.90
2017-09-21T07:33:58.582Z,12.04
2017-09-21T07:34:58.578Z,11.97
2017-09-21T07:35:58.577Z,12.04
2017-09-21T07:36:58.575Z,12.09
2017-09-21T07:37:58.574Z,12.12
2017-09-21T07:38:58.572Z,12.10
2017-09-21T07:39:58.572Z,12.20
2017-09-21T07:40:58.568Z,12.13
2017-09-21T07:41:58.568Z,12.12
2017-09-21T07:42:58.567Z,12.12
2017-09-21T07:43:58.563Z,12.29
2017-09-21T07:44:58.563Z,12.31
2017-09-21T07:45:58.561Z,12.31
2017-09-21T07:46:58.561Z,12.37
2017-09-21T07:47:58.559Z,12.45
2017-09-21T07:48:58.557Z,12.46
2017-09-21T07:49:58.556Z,12.46
2017-09-21T07:50:58.553Z,12.55
2017-09-21T07:51:58.553Z,12.49
2017-09-21T07:52:58.550Z,12.67
2017-09-21T07:53:58.549Z,12.72
2017-09-21T07:54:58.549Z,12.79
2017-09-21T07:55:58.549Z,12.79
2017-09-21T07:56:58.547Z,12.78
2017-09-21T07:57:58.548Z,12.75
2017-09-21T07:58:58.549Z,12.87
2017-09-21T07:59:58.545Z,12.97
2017-09-21T08:00:58.541Z,13.00
2017-09-21T08:01:58.542Z,13.08
2017-09-21T08:02:58.540Z,13.12
2017-09-21T08:03:58.538Z,13.19
2017-09-21T08:04:58.536Z,13.20
2017-09-21T08:05:58.537Z,13.30
2017-09-21T08:06:58.536Z,13.35
2017-09-21T08:07:58.535Z,13.41
2017-09-21T08:08:58.534Z,13.42
2017-09-21T08:09:58.534Z,13.44
2017-09-21T08:10:58.534Z,13.60
2017-09-21T08:11:58.532Z,13.67
2017-09-21T08:12:58.532Z,13.72
2017-09-21T08:13:58.530Z,13.62
2017-09-21T08:14:58.529Z,13.65
2017-09-21T08:15:58.530Z,13.78
2017-09-21T08:16:58.528Z,13.85
2017-09-21T08:17:58.529Z,13.92
2017-09-21T08:18:58.528Z,13.85
2017-09-21T08:19:58.528Z,13.85
2017-09-21T08:20:58.528Z,13.86
2017-09-21T08:21:58.536Z,13.92
2017-09-21T08:22:58.526Z,14.00
2017-09-21T08:23:58.527Z,14.05
2017-09-21T08:24:58.529Z,13.99
2017-09-21T08:25:58.527Z,14.18
2017-09-21T08:26:58.527Z,14.20
2017-09-21T08:27:58.525Z,14.26
2017-09-21T08:28:58.525Z,14.18
2017-09-21T08:29:58.525Z,14.29
2017-09-21T08:30:58.524Z,14.45
2017-09-21T08:31:58.524Z,14.43
2017-09-21T08:32:58.524Z,14.51
2017-09-21T08:33:58.525Z,14.50
2017-09-21T08:34:58.526Z,14.58
2017-09-21T08:35:58.525Z,14.62
2017-09-21T08:36:58.526Z,14.69
2017-09-21T08:37:58.524Z,14.69
2017-09-21T08:38:58.528Z,14.54
2017-09-21T08:39:58.526Z,14.47
2017-09-21T08:40:58.525Z,14.51
2017-09-21T08:41:58.526Z,14.65
2017-09-21T08:42:58.527Z,14.66
2017-09-21T08:43:58.528Z,14.70
2017-09-21T08:44:58.540Z,14.81
2017-09-21T08:45:58.528Z,14.72
2017-09-21T08:46:58.529Z,14.84
2017-09-21T08:47:58.530Z,15.00
2017-09-21T08:48:58.529Z,15.14
2017-09-21T08:49:58.530Z,15.28
2017-09-21T08:50:58.529Z,15.39
2017-09-21T08:51:58.532Z,15.43
2017-09-21T08:52:58.530Z,15.84
2017-09-21T08:53:58.534Z,16.41
2017-09-21T08:54:58.536Z,17.06
2017-09-21T08:55:58.565Z,17.78
2017-09-21T08:56:58.538Z,18.56
2017-09-21T08:57:58.541Z,19.30
2017-09-21T08:58:58.545Z,19.69
2017-09-21T08:59:58.548Z,20.36
2017-09-21T09:00:58.551Z,20.74
2017-09-21T09:01:58.555Z,21.02
2017-09-21T09:02:58.559Z,20.72
2017-09-21T09:03:58.564Z,20.00
2017-09-21T09:04:58.566Z,20.55
2017-09-21T09:05:58.570Z,20.93
2017-09-21T09:06:58.577Z,20.78
2017-09-21T09:07:58.610Z,20.24
2017-09-21T09:08:58.588Z,20.16
2017-09-21T09:09:58.596Z,20.82
2017-09-21T09:10:58.600Z,20.82
2017-09-21T09:11:58.608Z,20.47
2017-09-21T09:12:58.613Z,20.92
2017-09-21T09:13:58.621Z,21.00
2017-09-21T09:14:58.628Z,20.82
2017-09-21T09:15:58.637Z,20.77
2017-09-21T09:16:58.644Z,21.52
2017-09-21T09:17:58.653Z,21.55
2017-09-21T09:18:58.661Z,21.66
2017-09-21T09:19:58.669Z,21.98
2017-09-21T09:20:58.676Z,22.47
2017-09-21T09:21:58.686Z,22.25
2017-09-21T09:22:58.697Z,21.96
2017-09-21T09:23:58.707Z,22.32
2017-09-21T09:24:58.715Z,22.69
2017-09-21T09:25:58.725Z,21.60
2017-09-21T09:26:58.736Z,21.36
2017-09-21T09:27:58.746Z,21.83
2017-09-21T09:28:58.755Z,22.50
2017-09-21T09:29:58.767Z,22.29
2017-09-21T09:30:58.777Z,22.10
2017-09-21T09:31:58.788Z,22.50
2017-09-21T09:32:58.798Z,22.29
2017-09-21T09:33:58.809Z,22.28
2017-09-21T09:34:58.821Z,22.04
2017-09-21T09:35:58.833Z,22.10
2017-09-21T09:36:58.843Z,22.50
2017-09-21T09:37:58.853Z,21.85
2017-09-21T09:38:58.866Z,21.09
2017-09-21T09:39:58.880Z,21.51
2017-09-21T09:40:58.890Z,21.69
2017-09-21T09:41:58.901Z,21.76
2017-09-21T09:42:58.913Z,21.33
2017-09-21T09:43:58.926Z,21.83
2017-09-21T09:44:58.936Z,22.17
2017-09-21T09:45:58.947Z,22.23
2017-09-21T09:46:58.959Z,22.50
2017-09-21T09:47:58.972Z,22.04
2017-09-21T09:48:58.987Z,22.22
2017-09-21T09:49:58.994Z,22.59
2017-09-21T09:50:59.008Z,22.18
2017-09-21T09:51:59.020Z,22.36
2017-09-21T09:52:59.031Z,22.62
2017-09-21T09:53:59.043Z,20.90
2017-09-21T09:54:59.060Z,20.97
2017-09-21T09:55:59.067Z,21.52
2017-09-21T09:56:59.079Z,21.80
2017-09-21T09:57:59.091Z,21.52
2017-09-21T09:58:59.106Z,22.00
2017-09-21T09:59:59.115Z,21.02
2017-09-21T10:00:59.126Z,20.85
2017-09-21T10:01:59.139Z,21.30
2017-09-21T10:02:59.152Z,21.88
2017-09-21T10:03:59.163Z,22.32
2017-09-21T10:04:59.176Z,21.93
2017-09-21T10:05:59.186Z,22.18
2017-09-21T10:06:59.198Z,22.50
2017-09-21T10:07:59.211Z,21.82
2017-09-21T10:08:59.222Z,22.08
2017-09-21T10:09:59.233Z,22.68
2017-09-21T10:10:59.246Z,22.68
2017-09-21T10:11:59.257Z,22.73
2017-09-21T10:12:59.270Z,22.80
2017-09-21T10:13:59.281Z,23.02
2017-09-21T10:14:59.293Z,22.62
2017-09-21T10:15:59.306Z,22.18
2017-09-21T10:16:59.314Z,21.89
2017-09-21T10:17:59.327Z,21.76
2017-09-21T10:18:59.343Z,21.93
2017-09-21T10:19:59.353Z,22.15
2017-09-21T10:20:59.364Z,22.72
2017-09-21T10:21:59.375Z,22.62
2017-09-21T10:22:59.388Z,22.29
2017-09-21T10:23:59.400Z,21.92
2017-09-21T10:24:59.411Z,22.18
2017-09-21T10:25:59.423Z,22.14
2017-09-21T10:26:59.435Z,21.72
2017-09-21T10:27:59.446Z,21.77
2017-09-21T10:28:59.460Z,21.50
2017-09-21T10:29:59.468Z,20.56
2017-09-21T10:30:59.487Z,20.02
2017-09-21T10:31:59.491Z,20.06
2017-09-21T10:32:59.500Z,20.07
2017-09-21T10:33:59.511Z,19.71
2017-09-21T10:34:59.521Z,19.81
2017-09-21T10:35:59.532Z,19.92
2017-09-21T10:36:59.542Z,19.62
2017-09-21T10:37:59.555Z,19.79
2017-09-21T10:38:59.563Z,19.82
2017-09-21T10:39:59.575Z,19.51
2017-09-21T10:40:59.581Z,19.29
2017-09-21T10:41:59.589Z,19.19
2017-09-21T10:42:59.599Z,19.08
2017-09-21T10:43:59.608Z,19.18
2017-09-21T10:44:59.615Z,18.81
2017-09-21T10:45:59.658Z,18.89
2017-09-21T10:46:59.634Z,19.04
2017-09-21T10:47:59.647Z,19.29
2017-09-21T10:48:59.647Z,19.29
2017-09-21T10:49:59.655Z,19.24
2017-09-21T10:50:59.662Z,19.09
2017-09-21T10:51:59.669Z,19.07
2017-09-21T10:52:59.675Z,18.96
2017-09-21T10:53:59.683Z,18.88
2017-09-21T10:54:59.689Z,18.89
2017-09-21T10:55:59.694Z,19.08
2017-09-21T10:56:59.701Z,19.22
2017-09-21T10:57:59.708Z,19.02
2017-09-21T10:58:59.714Z,19.00
2017-09-21T10:59:59.718Z,19.08
2017-09-21T11:00:59.725Z,19.15
2017-09-21T11:01:59.731Z,19.04
2017-09-21T11:02:59.737Z,18.90
2017-09-21T11:03:59.746Z,19.04
2017-09-21T11:04:59.747Z,18.93
2017-09-21T11:05:59.753Z,19.04
2017-09-21T11:06:59.758Z,19.15
2017-09-21T11:07:59.769Z,19.27
2017-09-21T11:08:59.768Z,19.14
2017-09-21T11:09:59.772Z,19.19
2017-09-21T11:10:59.777Z,19.31
2017-09-21T11:11:59.782Z,19.56
2017-09-21T11:12:59.786Z,19.55
2017-09-21T11:13:59.791Z,19.40
2017-09-21T11:14:59.795Z,19.21
2017-09-21T11:15:59.838Z,18.99
2017-09-21T11:16:59.806Z,19.11
2017-09-21T11:17:59.811Z,19.26
2017-09-21T11:18:59.816Z,19.30
2017-09-21T11:19:59.822Z,19.39
2017-09-21T11:20:59.823Z,19.47
2017-09-21T11:21:59.828Z,19.36
2017-09-21T11:22:59.833Z,19.47
2017-09-21T11:23:59.868Z,19.45
2017-09-21T11:24:59.840Z,19.48
2017-09-21T11:25:59.844Z,19.39
2017-09-21T11:26:59.850Z,19.19
2017-09-21T11:27:59.855Z,19.26
2017-09-21T11:28:59.860Z,19.12
2017-09-21T11:29:59.863Z,19.09
2017-09-21T11:30:59.867Z,19.09
2017-09-21T11:31:59.870Z,19.02
2017-09-21T11:32:59.874Z,19.11
2017-09-21T11:33:59.879Z,19.29
2017-09-21T11:34:59.883Z,19.30
2017-09-21T11:35:59.889Z,19.39
2017-09-21T11:36:59.891Z,19.62
2017-09-21T11:37:59.895Z,19.45
2017-09-21T11:38:59.901Z,19.51
2017-09-21T11:39:59.901Z,19.31
2017-09-21T11:40:59.906Z,19.11
2017-09-21T11:41:59.912Z,19.15
2017-09-21T11:42:59.916Z,19.18
2017-09-21T11:43:59.919Z,19.16
2017-09-21T11:44:59.925Z,18.96
2017-09-21T11:45:59.927Z,18.99
2017-09-21T11:46:59.930Z,19.00
2017-09-21T11:47:59.934Z,18.98
2017-09-21T11:48:59.938Z,19.09
2017-09-21T11:49:59.940Z,19.14
2017-09-21T11:50:59.946Z,19.30
2017-09-21T11:51:59.949Z,19.27
2017-09-21T11:52:59.953Z,19.16
2017-09-21T11:53:59.960Z,19.14
2017-09-21T11:54:59.961Z,19.11
2017-09-21T11:55:59.964Z,19.22
2017-09-21T11:56:59.968Z,19.26
2017-09-21T11:57:59.972Z,19.31
2017-09-21T11:58:59.973Z,19.24
2017-09-21T11:59:59.979Z,19.22
2017-09-21T12:00:59.982Z,19.33
2017-09-21T12:01:59.986Z,19.33
2017-09-21T12:02:59.988Z,19.45
2017-09-21T12:03:59.992Z,19.55
2017-09-21T12:04:59.995Z,19.52
2017-09-21T12:05:59.999Z,19.63
2017-09-21T12:07:00.003Z,19.63
2017-09-21T12:08:00.006Z,19.88
2017-09-21T12:09:00.011Z,19.86
2017-09-21T12:10:00.013Z,19.99
2017-09-21T12:11:00.016Z,19.89
2017-09-21T12:12:00.019Z,19.51
2017-09-21T12:13:00.022Z,19.45
2017-09-21T12:14:00.026Z,19.44
2017-09-21T12:15:00.030Z,19.67
2017-09-21T12:16:00.033Z,19.71
2017-09-21T12:17:00.035Z,19.82
2017-09-21T12:18:00.038Z,19.91
2017-09-21T12:19:00.044Z,20.10
2017-09-21T12:20:00.046Z,20.21
2017-09-21T12:21:00.049Z,20.02
2017-09-21T12:22:00.052Z,19.82
2017-09-21T12:23:00.056Z,19.69
2017-09-21T12:24:00.059Z,19.69
2017-09-21T12:25:00.061Z,19.69
2017-09-21T12:26:00.065Z,19.63
2017-09-21T12:27:00.069Z,19.52
2017-09-21T12:28:00.073Z,19.40
2017-09-21T12:29:00.074Z,19.19
2017-09-21T12:30:00.077Z,19.33
2017-09-21T12:31:00.082Z,19.59
2017-09-21T12:32:00.086Z,19.70
2017-09-21T12:33:00.088Z,19.82
2017-09-21T12:34:00.092Z,19.94
2017-09-21T12:35:00.095Z,20.00
2017-09-21T12:36:00.099Z,19.70
2017-09-21T12:37:00.101Z,19.63
2017-09-21T12:38:00.105Z,19.51
2017-09-21T12:39:00.108Z,19.29
2017-09-21T12:40:00.111Z,19.29
2017-09-21T12:41:00.114Z,19.48
2017-09-21T12:42:00.118Z,19.49
2017-09-21T12:43:00.120Z,19.74
2017-09-21T12:44:00.123Z,19.82
2017-09-21T12:45:00.127Z,19.69
2017-09-21T12:46:00.130Z,19.74
2017-09-21T12:47:00.135Z,19.74
2017-09-21T12:48:00.135Z,19.91
2017-09-21T12:49:00.137Z,19.94
2017-09-21T12:50:00.143Z,19.54
2017-09-21T12:51:00.145Z,19.49
2017-09-21T12:52:00.148Z,19.48
2017-09-21T12:53:00.151Z,19.40
2017-09-21T12:54:00.154Z,19.37
2017-09-21T12:55:00.157Z,19.39
2017-09-21T12:56:00.160Z,19.29
2017-09-21T12:57:00.162Z,19.31
2017-09-21T12:58:00.166Z,19.48
2017-09-21T12:59:00.167Z,19.58
2017-09-21T13:00:00.175Z,19.49
2017-09-21T13:01:00.174Z,19.62